Skip Navigation Links Skip Navigation Links

Current Weather

Toledo Suburban, Lambertville, Mich.

For information only: do not use for flight planning or navigation.
Latest weather
Observation time Saturday, October 19, 2019 5:56 AM EDT
Local time Saturday, October 19, 2019 6:18 AM EDT
Flight conditions Visual Meteorological Conditions
Winds
Wind speed calm
Visibility 5 mi.
Present weather mist
Sky condition
Ceiling unlimited
Sky clear
Temperature 38°F
Dewpoint 35°F
Altimeter 30.00 in.Hg
Derived measurements
Relative humidity 92%
Wind chill 38°F
Density altitude -762 ft.
Remarks
Fully automated report.
Automated weather observing station with precipitation discriminator.
METAR KDUH 190956Z AUTO 00000KT 5SM BR CLR 03/02 A3000 RMK AO2 T00310019

Settings

Location code

InnerDrive.Weather 4.0.6770.0 Release CLR 4.0.30319.42000
Copyright ©2018 Inner Drive Technology. All rights reserved. Portions Copyright ©1986-2018 David Braverman.

Find weather

Site navigation


Skip Navigation Links

Place info

Page info

PayPal - The safer, easier way to pay online!

Return home.

Copyright ©2019 Inner Drive Technology. Purveyors of fine, hand-crafted computer software. Page printed 2019-10-19T10:18:01 UTC.